Time;durP1;ratioP1;P1;durP2;ratioP2;P2;SDS_P1;SDS_P2;PMS_P1;PMS_P2;Temp;Humidity;BMP_temperature;BMP_pressure;BME280_temperature;BME280_humidity;BME280_pressure;Samples;Min_cycle;Max_cycle;Signal;HPM_P1;HPM_P2
2022/06/28 00:00:26;;;;;;;7.90;3.35;;;;;;;14.55;100.00;101724.97;4972406;28;20182;-47
2022/06/28 00:02:51;;;;;;;3.90;3.65;;;;;;;14.32;100.00;101724.97;4971796;28;20613;-48
2022/06/28 00:05:17;;;;;;;5.55;3.80;;;;;;;14.34;100.00;101725.81;4972127;28;20202;-48
2022/06/28 00:07:43;;;;;;;6.05;3.70;;;;;;;14.28;100.00;101731.44;4971810;28;20208;-46
2022/06/28 00:10:11;;;;;;;7.47;3.88;;;;;;;14.21;100.00;101737.09;4972121;28;20178;-49
2022/06/28 00:12:37;;;;;;;4.80;3.85;;;;;;;14.33;100.00;101732.16;4972060;28;20185;-50
2022/06/28 00:18:07;;;;;;;7.20;4.20;;;;;;;14.27;100.00;101735.94;4931291;29;20215;-49
2022/06/28 00:20:33;;;;;;;6.65;4.55;;;;;;;14.34;100.00;101742.88;4963024;28;20237;-50
2022/06/28 00:22:58;;;;;;;5.03;4.38;;;;;;;14.31;100.00;101759.16;4971276;28;20193;-50
2022/06/28 00:25:24;;;;;;;7.00;4.68;;;;;;;14.34;100.00;101764.44;4971605;28;20559;-50
2022/06/28 00:27:49;;;;;;;5.38;4.75;;;;;;;14.34;100.00;101761.75;4954482;28;20190;-49
2022/06/28 00:30:15;;;;;;;5.10;4.80;;;;;;;14.36;100.00;101758.97;4954611;28;20185;-49
2022/06/28 00:32:41;;;;;;;6.13;4.25;;;;;;;14.35;100.00;101759.94;4954057;28;20205;-44
2022/06/28 00:35:07;;;;;;;5.40;4.90;;;;;;;14.32;100.00;101778.91;4953582;28;20269;-42
2022/06/28 00:37:32;;;;;;;4.55;4.13;;;;;;;14.38;100.00;101784.94;4953983;28;20205;-43
2022/06/28 00:39:58;;;;;;;7.47;5.03;;;;;;;14.30;100.00;101788.84;4954197;28;20332;-42
2022/06/28 00:42:24;;;;;;;4.88;4.47;;;;;;;14.26;100.00;101798.91;4954214;28;20170;-41
2022/06/28 00:44:51;;;;;;;5.20;4.38;;;;;;;14.28;100.00;101785.34;4970941;28;20714;-42
2022/06/28 00:47:17;;;;;;;5.30;4.50;;;;;;;14.30;100.00;101778.97;4971521;28;20276;-42
2022/06/28 00:49:43;;;;;;;7.38;4.75;;;;;;;14.29;100.00;101771.81;4971111;28;20181;-43
2022/06/28 00:52:11;;;;;;;6.38;4.97;;;;;;;14.31;100.00;101764.56;4971412;28;20207;-44
2022/06/28 00:54:37;;;;;;;5.50;5.00;;;;;;;14.36;100.00;101767.94;4971009;28;20178;-42
2022/06/28 00:57:03;;;;;;;5.47;4.97;;;;;;;14.35;100.00;101757.22;4952594;28;20212;-43
2022/06/28 00:59:29;;;;;;;6.18;5.05;;;;;;;14.42;100.00;101762.31;4971779;28;20185;-42
2022/06/28 01:01:58;;;;;;;5.85;5.35;;;;;;;14.30;100.00;101772.69;4953577;28;20186;-42
2022/06/28 01:04:24;;;;;;;6.38;5.53;;;;;;;14.34;100.00;101767.16;4970502;28;20212;-44
2022/06/28 01:06:53;;;;;;;6.55;5.20;;;;;;;14.32;100.00;101769.03;4970848;28;20198;-42
2022/06/28 01:09:18;;;;;;;7.13;5.57;;;;;;;14.28;100.00;101763.78;4954036;28;20223;-45
2022/06/28 01:11:44;;;;;;;7.35;5.30;;;;;;;14.35;100.00;101768.88;4971029;28;20619;-45
2022/06/28 02:41:48;;;;;;;4.28;3.53;;;;;;;14.24;100.00;101818.78;4973802;28;20182;-45
2022/06/28 02:44:17;;;;;;;6.57;5.07;;;;;;;14.06;100.00;101823.00;4977605;28;20208;-44
2022/06/28 02:46:44;;;;;;;6.60;5.97;;;;;;;14.02;100.00;101823.13;4987476;28;20208;-46
2022/06/28 02:49:09;;;;;;;7.30;6.20;;;;;;;13.93;100.00;101820.78;4992681;28;20169;-45
2022/06/28 02:51:35;;;;;;;11.13;6.45;;;;;;;13.93;100.00;101811.81;4984246;28;20264;-42
2022/06/28 02:54:00;;;;;;;6.53;5.25;;;;;;;13.95;100.00;101810.84;4974276;28;20194;-43
2022/06/28 02:56:26;;;;;;;8.23;6.68;;;;;;;13.92;100.00;101812.75;4974376;28;20567;-45
2022/06/28 02:58:52;;;;;;;6.22;5.43;;;;;;;13.97;100.00;101818.84;4974814;28;20173;-45
2022/06/28 03:01:18;;;;;;;8.15;6.10;;;;;;;13.97;100.00;101817.03;4973248;28;20261;-46
2022/06/28 03:03:44;;;;;;;14.32;6.63;;;;;;;13.98;100.00;101826.00;4972273;28;20257;-45
2022/06/28 03:06:11;;;;;;;7.20;6.50;;;;;;;14.05;100.00;101827.53;4955672;28;20248;-44
2022/06/28 03:08:38;;;;;;;8.82;5.65;;;;;;;14.08;100.00;101829.22;4955713;28;20269;-45
2022/06/28 03:11:04;;;;;;;5.78;5.32;;;;;;;14.10;100.00;101836.34;4954720;28;20258;-45
2022/06/28 03:13:30;;;;;;;6.38;5.90;;;;;;;14.09;100.00;101831.00;4972754;28;20710;-43
2022/06/28 03:15:55;;;;;;;9.70;5.70;;;;;;;14.10;100.00;101830.03;4972713;28;20198;-43
2022/06/28 03:18:21;;;;;;;9.43;5.93;;;;;;;14.13;100.00;101841.59;4955183;28;20185;-45
2022/06/28 03:20:46;;;;;;;6.43;5.93;;;;;;;14.11;100.00;101837.22;4955707;28;20217;-43
2022/06/28 03:23:13;;;;;;;5.50;5.00;;;;;;;14.14;100.00;101829.00;4955166;28;20193;-44
2022/06/28 03:25:41;;;;;;;8.65;4.53;;;;;;;14.19;100.00;101835.09;4954952;28;20222;-43
2022/06/28 03:28:07;;;;;;;6.47;5.72;;;;;;;14.09;100.00;101833.69;4955257;28;20533;-44
2022/06/28 03:30:33;;;;;;;9.05;5.55;;;;;;;14.00;100.00;101849.25;4939415;28;20209;-43
2022/06/28 03:32:59;;;;;;;4.40;4.05;;;;;;;14.12;100.00;101838.94;4954779;28;20676;-43
2022/06/28 03:35:29;;;;;;;6.20;5.18;;;;;;;14.12;100.00;101837.13;4955545;28;20249;-45
2022/06/28 03:37:55;;;;;;;4.65;4.35;;;;;;;14.20;100.00;101843.13;4955213;28;20647;-44
2022/06/28 03:40:31;;;;;;;6.53;5.75;;;;;;;14.04;100.00;101836.56;4955137;28;20280;-45
2022/06/28 03:42:57;;;;;;;6.07;5.63;;;;;;;14.06;100.00;101844.56;4972522;28;20285;-43
2022/06/28 03:45:23;;;;;;;6.82;5.32;;;;;;;14.09;100.00;101841.78;4954857;28;20256;-43
2022/06/28 03:48:08;;;;;;;4.80;4.50;;;;;;;14.12;100.00;101834.44;4972521;28;20597;-45
2022/06/28 03:50:54;;;;;;;4.72;4.32;;;;;;;14.14;100.00;101861.34;4964598;28;20204;-44
2022/06/28 03:53:32;;;;;;;5.07;4.57;;;;;;;14.18;100.00;101868.38;4954709;28;20175;-43
2022/06/28 03:56:04;;;;;;;4.60;4.30;;;;;;;14.16;100.00;101865.72;4954591;28;20209;-44
2022/06/28 03:58:30;;;;;;;5.88;5.30;;;;;;;14.06;100.00;101866.13;4955077;28;20178;-43
2022/06/28 04:00:55;;;;;;;4.45;4.05;;;;;;;14.17;100.00;101869.34;4972112;28;20170;-43
2022/06/28 04:03:22;;;;;;;3.63;3.42;;;;;;;14.23;100.00;101871.78;4971392;28;20905;-43
2022/06/28 04:05:48;;;;;;;4.55;3.88;;;;;;;14.25;100.00;101879.81;4971967;28;20277;-43
2022/06/28 04:08:13;;;;;;;5.68;4.88;;;;;;;14.20;100.00;101885.38;4953859;28;20186;-45
2022/06/28 04:10:44;;;;;;;5.82;5.28;;;;;;;14.08;100.00;101897.50;4954507;28;20163;-44
2022/06/28 04:13:21;;;;;;;4.70;4.30;;;;;;;14.17;100.00;101905.25;4954242;28;20668;-44
2022/06/28 04:15:47;;;;;;;5.90;5.43;;;;;;;14.11;100.00;101901.88;4937977;28;20166;-46
2022/06/28 04:18:19;;;;;;;6.15;5.30;;;;;;;14.05;100.00;101907.50;4954635;28;20190;-44
2022/06/28 04:21:15;;;;;;;4.53;4.07;;;;;;;14.17;100.00;101907.94;4963603;28;20169;-43
2022/06/28 04:23:41;;;;;;;5.18;4.72;;;;;;;14.19;100.00;101907.84;4953960;28;20603;-43
2022/06/28 04:26:08;;;;;;;5.47;4.95;;;;;;;14.22;100.00;101905.06;4953799;28;20217;-43
2022/06/28 04:28:40;;;;;;;4.65;4.10;;;;;;;14.29;100.00;101906.59;4954431;28;20173;-43
2022/06/28 04:31:11;;;;;;;5.40;5.00;;;;;;;14.16;100.00;101905.28;4954109;28;20213;-41
2022/06/28 04:33:37;;;;;;;4.53;4.22;;;;;;;14.22;100.00;101914.03;4953853;28;20174;-42
2022/06/28 04:36:05;;;;;;;3.67;3.38;;;;;;;14.31;100.00;101917.34;4954030;28;20242;-42
2022/06/28 04:38:32;;;;;;;4.70;4.18;;;;;;;14.27;100.00;101913.00;4953854;28;20231;-43
2022/06/28 04:41:03;;;;;;;4.63;4.32;;;;;;;14.17;100.00;101917.84;4953956;28;20282;-43
2022/06/28 04:43:41;;;;;;;5.05;4.55;;;;;;;14.24;100.00;101923.91;4959679;28;20178;-43
2022/06/28 04:46:07;;;;;;;4.82;4.43;;;;;;;14.25;100.00;101918.44;4956991;28;20573;-42
2022/06/28 04:48:35;;;;;;;4.78;4.30;;;;;;;14.20;100.00;101928.50;4976675;28;20177;-42
2022/06/28 04:51:10;;;;;;;5.22;4.38;;;;;;;14.19;100.00;101922.25;4982812;28;20592;-44
2022/06/28 04:53:40;;;;;;;4.97;4.57;;;;;;;14.34;100.00;101928.91;4953761;28;20217;-43
2022/06/28 04:56:06;;;;;;;4.88;4.43;;;;;;;14.50;100.00;101933.72;4953544;28;20212;-41
2022/06/28 04:58:32;;;;;;;5.35;4.90;;;;;;;14.61;100.00;101924.31;4954138;28;20562;-42
2022/06/28 05:00:58;;;;;;;5.88;5.38;;;;;;;14.71;100.00;101934.75;4956151;28;20173;-42
2022/06/28 05:03:24;;;;;;;5.15;4.30;;;;;;;14.90;100.00;101934.94;4972522;28;20263;-43
2022/06/28 05:06:02;;;;;;;4.80;4.50;;;;;;;15.03;100.00;101936.22;4990660;28;20193;-42
2022/06/28 05:08:28;;;;;;;6.22;4.55;;;;;;;15.14;100.00;101925.88;4973082;28;20636;-43
2022/06/28 05:10:59;;;;;;;7.00;5.25;;;;;;;14.98;100.00;101938.25;4990626;28;20660;-43
2022/06/28 05:13:30;;;;;;;5.80;5.30;;;;;;;15.19;100.00;101923.88;4988602;28;20188;-42
2022/06/28 05:15:58;;;;;;;6.88;5.50;;;;;;;15.15;100.00;101922.25;4972148;28;20692;-41
2022/06/28 05:18:23;;;;;;;6.60;5.53;;;;;;;15.22;100.00;101922.88;4990314;28;20193;-42
2022/06/28 05:20:49;;;;;;;6.32;5.30;;;;;;;15.39;100.00;101908.69;4990308;28;20260;-43
2022/06/28 05:23:15;;;;;;;6.05;4.43;;;;;;;15.54;100.00;101915.28;4972431;28;20535;-41
2022/06/28 05:26:06;;;;;;;6.10;5.07;;;;;;;15.50;100.00;101913.63;4976044;28;20245;-42
2022/06/28 05:28:33;;;;;;;6.47;4.78;;;;;;;15.52;100.00;101915.34;4973104;28;20733;-41
2022/06/28 05:30:58;;;;;;;5.22;4.72;;;;;;;15.51;100.00;101915.41;4972611;28;20284;-43
2022/06/28 05:33:24;;;;;;;4.43;3.97;;;;;;;15.41;100.00;101912.19;4972444;28;20168;-43
2022/06/28 05:35:50;;;;;;;4.28;3.88;;;;;;;15.44;100.00;101901.28;4978181;28;20181;-42
2022/06/28 05:38:16;;;;;;;4.18;3.50;;;;;;;15.63;100.00;101913.09;4972564;28;20172;-42
2022/06/28 05:40:44;;;;;;;6.95;4.10;;;;;;;15.74;100.00;101904.56;4990211;28;20161;-42
2022/06/28 05:43:10;;;;;;;4.20;3.78;;;;;;;15.56;100.00;101908.00;4955937;28;20188;-43
2022/06/28 05:45:36;;;;;;;4.32;3.90;;;;;;;15.42;100.00;101901.34;4972699;28;20312;-42
2022/06/28 05:48:01;;;;;;;3.97;3.55;;;;;;;15.59;100.00;101903.34;4972685;28;20198;-41
2022/06/28 05:50:28;;;;;;;5.10;4.47;;;;;;;15.70;100.00;101911.00;4968863;28;20173;-41
2022/06/28 05:52:54;;;;;;;4.85;3.67;;;;;;;15.84;100.00;101913.13;4970597;28;20269;-41
2022/06/28 05:55:20;;;;;;;6.78;4.15;;;;;;;15.91;100.00;101903.81;4963207;28;20277;-42
2022/06/28 05:57:46;;;;;;;3.85;3.47;;;;;;;16.06;100.00;101913.09;4963391;28;20620;-42
2022/06/28 06:00:12;;;;;;;5.28;3.60;;;;;;;15.71;100.00;101911.88;4953210;28;20220;-43
2022/06/28 06:02:41;;;;;;;5.03;3.63;;;;;;;15.74;100.00;101909.06;4970829;28;20281;-43
2022/06/28 06:05:08;;;;;;;6.68;4.00;;;;;;;15.89;100.00;101908.41;4952774;28;20280;-43
2022/06/28 06:07:34;;;;;;;4.13;3.55;;;;;;;15.92;100.00;101904.69;4953098;28;20212;-43
2022/06/28 06:10:01;;;;;;;4.70;3.58;;;;;;;16.01;100.00;101909.72;4953385;28;20224;-45
2022/06/28 06:12:26;;;;;;;4.15;3.50;;;;;;;16.06;100.00;101913.09;4952757;28;20261;-43
2022/06/28 06:14:52;;;;;;;4.78;3.50;;;;;;;16.14;100.00;101907.34;4952816;28;20243;-41
2022/06/28 06:17:18;;;;;;;6.03;3.50;;;;;;;16.33;100.00;101901.97;4953164;28;20198;-44
2022/06/28 06:19:44;;;;;;;5.78;2.90;;;;;;;16.97;100.00;101901.72;4953230;28;20634;-43
2022/06/28 06:22:10;;;;;;;3.63;2.58;;;;;;;17.20;100.00;101894.31;4953190;28;20170;-42
2022/06/28 06:24:35;;;;;;;2.95;2.63;;;;;;;17.04;99.44;101905.03;4969774;28;20213;-44
2022/06/28 06:27:07;;;;;;;4.18;2.42;;;;;;;17.16;99.38;101895.41;4937924;28;20218;-42
2022/06/28 06:29:32;;;;;;;5.05;2.28;;;;;;;17.34;97.68;101901.75;4952761;28;20678;-43
2022/06/28 06:31:58;;;;;;;5.88;2.65;;;;;;;17.59;95.76;101905.00;4954283;28;20189;-48
2022/06/28 06:34:42;;;;;;;3.65;2.40;;;;;;;17.71;93.96;101907.09;4973561;28;20552;-48
2022/06/28 06:37:10;;;;;;;4.70;1.98;;;;;;;17.74;94.47;101902.47;4956063;28;20241;-48
2022/06/28 06:39:35;;;;;;;3.53;2.10;;;;;;;18.12;93.66;101916.78;4956237;28;20617;-46
2022/06/28 06:42:02;;;;;;;6.28;1.85;;;;;;;18.16;92.58;101912.94;4940222;28;20178;-47
2022/06/28 06:44:27;;;;;;;1.70;1.60;;;;;;;18.43;90.24;101934.13;4955539;28;20735;-49
2022/06/28 06:46:53;;;;;;;4.57;2.38;;;;;;;18.18;87.43;101931.84;4956337;28;20241;-50
2022/06/28 06:49:18;;;;;;;4.40;2.42;;;;;;;18.50;90.20;101927.44;4956195;28;20322;-48
2022/06/28 06:51:45;;;;;;;3.08;2.30;;;;;;;18.90;88.60;101923.41;4968972;28;20169;-47
2022/06/28 06:54:11;;;;;;;7.88;2.42;;;;;;;19.03;85.67;101933.59;4974485;28;20236;-48
2022/06/28 06:56:38;;;;;;;7.47;2.05;;;;;;;18.31;84.80;101931.13;4992970;28;20189;-49
2022/06/28 06:59:04;;;;;;;3.78;1.98;;;;;;;18.85;86.03;101930.09;4992327;28;20510;-49
2022/06/28 07:01:33;;;;;;;5.60;1.60;;;;;;;19.19;84.73;101933.59;4992817;28;20181;-49
2022/06/28 07:04:04;;;;;;;3.70;1.85;;;;;;;19.05;83.83;101934.41;4974873;28;20197;-47
2022/06/28 07:06:31;;;;;;;7.35;1.90;;;;;;;18.85;84.39;101936.38;4974803;28;20202;-48
2022/06/28 07:08:57;;;;;;;3.38;1.90;;;;;;;19.36;83.29;101930.81;4975068;28;20706;-47
2022/06/28 07:11:22;;;;;;;3.08;1.98;;;;;;;19.35;82.05;101937.22;4974731;28;20296;-46
2022/06/28 07:13:49;;;;;;;4.75;1.58;;;;;;;19.89;81.57;101940.38;4974532;28;20312;-48
2022/06/28 07:16:14;;;;;;;5.85;1.80;;;;;;;19.89;79.62;101937.66;4974780;28;20280;-48
2022/06/28 07:18:40;;;;;;;4.05;1.85;;;;;;;19.79;79.35;101941.94;4992350;28;20659;-49
2022/06/28 07:21:05;;;;;;;3.95;1.77;;;;;;;20.49;77.92;101944.06;4992269;28;20173;-48
2022/06/28 07:23:31;;;;;;;3.67;1.58;;;;;;;20.50;77.86;101951.22;4957803;28;20275;-49
2022/06/28 07:25:56;;;;;;;3.45;1.55;;;;;;;20.77;76.11;101945.91;4974553;28;20253;-47
2022/06/28 07:28:22;;;;;;;1.65;1.38;;;;;;;21.23;74.79;101951.16;4974489;28;20182;-48
2022/06/28 07:30:48;;;;;;;2.17;1.73;;;;;;;20.43;76.42;101950.75;4992249;28;20614;-48
2022/06/28 07:33:14;;;;;;;2.72;1.70;;;;;;;20.32;76.18;101961.41;4974320;28;20316;-48
2022/06/28 07:35:40;;;;;;;3.70;2.20;;;;;;;19.52;76.99;101956.13;4973852;28;20246;-46
2022/06/28 07:38:07;;;;;;;5.32;1.83;;;;;;;20.17;78.67;101957.78;4974561;28;20185;-47
2022/06/28 07:40:52;;;;;;;5.15;2.10;;;;;;;19.49;76.99;101958.16;4991802;28;20256;-46
2022/06/28 07:43:36;;;;;;;3.38;1.80;;;;;;;20.36;76.08;101952.09;4991563;28;20192;-47
2022/06/28 07:46:05;;;;;;;2.20;1.80;;;;;;;20.53;74.88;101968.28;4973830;28;20190;-47
2022/06/28 07:48:31;;;;;;;1.67;1.58;;;;;;;20.58;73.87;101974.31;4992029;28;20181;-46
2022/06/28 07:53:43;;;;;;;3.17;1.48;;;;;;;20.80;71.84;101964.81;4973686;28;20189;-47
2022/06/28 07:56:18;;;;;;;2.22;1.35;;;;;;;21.62;70.63;101954.94;4974215;28;20239;-46
2022/06/28 07:58:44;;;;;;;2.17;1.40;;;;;;;21.57;68.98;101944.34;4974006;28;20229;-47
2022/06/28 08:01:15;;;;;;;3.17;1.67;;;;;;;21.52;69.49;101951.13;4974156;28;20169;-47
2022/06/28 08:03:40;;;;;;;2.53;1.63;;;;;;;21.22;69.55;101953.97;4973519;28;20550;-46
2022/06/28 08:06:06;;;;;;;1.77;1.23;;;;;;;22.13;69.26;101949.66;4974110;28;20212;-48
2022/06/28 08:08:41;;;;;;;1.88;1.50;;;;;;;21.33;67.39;101952.28;4974075;28;20200;-47
2022/06/28 08:11:09;;;;;;;2.10;1.50;;;;;;;21.97;67.44;101943.50;4973540;28;20266;-48
2022/06/28 08:13:37;;;;;;;2.95;1.50;;;;;;;22.18;66.46;101938.44;4990784;28;20256;-47
2022/06/28 08:16:04;;;;;;;2.20;1.10;;;;;;;22.06;66.60;101940.13;4973645;28;20647;-47
2022/06/28 08:18:29;;;;;;;2.83;1.30;;;;;;;22.61;65.20;101947.22;4991492;28;20177;-47
2022/06/28 08:20:55;;;;;;;3.00;1.30;;;;;;;21.90;65.81;101944.91;4991398;28;20187;-47
2022/06/28 08:23:21;;;;;;;2.80;1.40;;;;;;;22.35;66.22;101948.22;4973137;28;20231;-47
2022/06/28 08:25:47;;;;;;;3.05;1.52;;;;;;;22.35;66.56;101949.06;4973299;28;20687;-48
2022/06/28 08:28:13;;;;;;;1.92;1.25;;;;;;;21.35;66.75;101957.63;4973333;28;20189;-47
2022/06/28 08:30:40;;;;;;;1.48;1.17;;;;;;;21.38;67.66;101958.31;4991280;28;20183;-48
2022/06/28 08:33:06;;;;;;;1.80;1.00;;;;;;;21.64;65.07;101942.09;4973309;28;20238;-48
2022/06/28 08:35:34;;;;;;;1.63;1.08;;;;;;;20.84;66.35;101947.31;4973614;28;20177;-48
2022/06/28 08:38:05;;;;;;;2.10;1.08;;;;;;;20.77;66.12;101946.81;4990937;28;20243;-48
2022/06/28 08:40:31;;;;;;;1.60;1.13;;;;;;;21.60;66.34;101940.53;4990869;28;20918;-46
2022/06/28 08:42:59;;;;;;;4.07;1.30;;;;;;;21.83;65.83;101949.91;4990901;28;20173;-48
2022/06/28 08:45:25;;;;;;;3.25;1.35;;;;;;;20.71;67.24;101960.81;4973231;28;20208;-47
2022/06/28 08:47:53;;;;;;;1.92;1.20;;;;;;;21.22;67.72;101948.53;4991013;28;20196;-48
2022/06/28 08:50:33;;;;;;;2.35;1.23;;;;;;;21.43;66.69;101962.59;4990265;28;20175;-46
2022/06/28 08:53:05;;;;;;;2.22;1.35;;;;;;;21.13;69.29;101963.63;4990326;28;20180;-47
2022/06/28 08:55:32;;;;;;;2.75;1.35;;;;;;;21.52;68.91;101956.56;4988688;28;20526;-46
2022/06/28 08:58:07;;;;;;;1.98;1.17;;;;;;;22.21;65.98;101947.28;4990371;28;20184;-48
2022/06/28 09:00:33;;;;;;;0.95;0.95;;;;;;;22.58;64.10;101943.84;4990651;28;20395;-46
2022/06/28 09:02:59;;;;;;;1.98;1.05;;;;;;;23.06;62.09;101933.09;4990100;28;20181;-49
2022/06/28 09:05:26;;;;;;;2.90;1.20;;;;;;;22.34;64.42;101944.56;4972724;28;20239;-47
2022/06/28 09:07:56;;;;;;;2.85;1.42;;;;;;;21.39;64.83;101959.19;4972257;28;20273;-48
2022/06/28 09:10:22;;;;;;;2.03;1.15;;;;;;;22.21;64.71;101963.66;4989876;28;20193;-48
2022/06/28 09:12:56;;;;;;;2.22;1.20;;;;;;;21.47;65.42;101970.50;4990218;28;20169;-47
2022/06/28 09:15:23;;;;;;;1.70;1.10;;;;;;;21.18;63.79;101956.00;4990424;28;20239;-49
2022/06/28 09:17:53;;;;;;;1.67;1.00;;;;;;;21.04;66.32;101965.09;4989714;28;20710;-47
2022/06/28 09:20:19;;;;;;;0.90;0.80;;;;;;;21.30;64.36;101962.53;4990285;28;20165;-47
2022/06/28 09:22:45;;;;;;;1.65;0.70;;;;;;;20.97;61.67;101959.16;4972923;28;20204;-48
2022/06/28 09:25:31;;;;;;;0.50;0.50;;;;;;;20.32;62.94;101964.13;4989606;28;20193;-48
2022/06/28 09:27:59;;;;;;;2.10;0.80;;;;;;;20.23;64.96;101959.25;4987622;28;20696;-46
2022/06/28 09:30:26;;;;;;;3.58;0.90;;;;;;;20.08;66.79;101967.38;4989937;28;20189;-48
2022/06/28 09:32:52;;;;;;;2.83;1.10;;;;;;;20.17;69.02;101964.09;4990206;28;20169;-45
2022/06/28 09:35:18;;;;;;;1.80;1.08;;;;;;;20.14;71.24;101971.59;4990040;28;20280;-48
2022/06/28 09:37:49;;;;;;;1.70;1.33;;;;;;;20.03;71.10;101974.94;4989962;28;20714;-47
2022/06/28 09:40:20;;;;;;;4.35;1.40;;;;;;;19.85;75.56;101981.47;4990271;28;20683;-46
2022/06/28 09:43:03;;;;;;;8.48;1.90;;;;;;;19.35;80.22;101984.28;4990169;28;20793;-47
2022/06/28 09:45:29;;;;;;;5.20;1.65;;;;;;;18.96;83.20;102002.78;4990244;28;20320;-48
2022/06/28 09:47:55;;;;;;;5.90;1.85;;;;;;;18.96;86.90;102008.22;4990218;28;20668;-46
2022/06/28 09:50:23;;;;;;;2.00;1.83;;;;;;;18.91;86.54;102006.66;4989950;28;20180;-45
2022/06/28 09:52:50;;;;;;;3.03;1.80;;;;;;;18.63;88.70;102001.81;4990269;28;20165;-46
2022/06/28 09:55:17;;;;;;;2.85;2.00;;;;;;;18.60;89.86;102001.09;4989351;28;20268;-46
2022/06/28 09:57:45;;;;;;;3.15;1.60;;;;;;;18.27;90.67;102010.91;4990338;28;20197;-48
2022/06/28 10:00:12;;;;;;;2.55;1.58;;;;;;;18.55;91.45;102000.47;4990041;28;20170;-47
2022/06/28 10:02:39;;;;;;;3.60;2.08;;;;;;;19.48;90.26;101998.06;4990252;28;20173;-48
2022/06/28 10:05:06;;;;;;;3.15;1.60;;;;;;;19.94;86.42;101997.22;4989597;28;20212;-48
2022/06/28 10:07:32;;;;;;;2.58;1.77;;;;;;;20.72;84.43;101988.91;4992269;28;20209;-45
2022/06/28 10:09:58;;;;;;;3.58;2.40;;;;;;;20.73;81.94;101983.38;4993811;28;20170;-46
2022/06/28 10:15:09;;;;;;;2.25;2.10;;;;;;;21.30;79.75;101981.63;4993437;28;20637;-47
2022/06/28 10:17:54;;;;;;;4.15;2.10;;;;;;;21.25;76.64;101983.75;4993378;28;20267;-46
2022/06/28 10:20:27;;;;;;;3.15;2.10;;;;;;;21.77;77.73;101974.88;4993605;28;20161;-47
2022/06/28 10:23:25;;;;;;;4.05;2.38;;;;;;;21.85;76.73;101977.09;4993439;28;20363;-48
2022/06/28 10:26:15;;;;;;;5.22;2.25;;;;;;;21.99;74.81;101974.28;4993523;28;20640;-46
2022/06/28 10:29:02;;;;;;;4.15;2.15;;;;;;;20.73;74.65;101977.94;4993170;28;20169;-48
2022/06/28 10:31:30;;;;;;;2.60;2.13;;;;;;;20.50;75.63;101987.50;4993552;28;20624;-47
2022/06/28 10:33:58;;;;;;;4.05;2.42;;;;;;;21.27;76.24;101979.06;4993032;28;20275;-49
2022/06/28 10:36:26;;;;;;;4.40;2.13;;;;;;;20.51;74.61;101981.09;4993132;28;20193;-48
2022/06/28 10:39:09;;;;;;;3.45;1.95;;;;;;;21.80;72.38;101966.50;4993266;28;20640;-48
2022/06/28 10:41:48;;;;;;;3.50;2.08;;;;;;;22.51;70.29;101975.31;4993053;28;20177;-45
2022/06/28 10:44:18;;;;;;;2.88;2.50;;;;;;;22.05;68.20;101971.16;4992840;28;20196;-48
2022/06/28 10:47:05;;;;;;;3.75;2.00;;;;;;;21.67;71.44;101973.72;4992957;28;20281;-49
2022/06/28 10:49:45;;;;;;;5.25;2.00;;;;;;;21.18;72.75;101984.13;4993165;28;20270;-45
2022/06/28 10:52:24;;;;;;;6.53;2.45;;;;;;;21.10;73.58;101985.59;4975964;28;20523;-46
2022/06/28 10:54:52;;;;;;;5.28;1.80;;;;;;;20.67;72.84;101977.44;4973214;28;20264;-47
2022/06/28 10:57:19;;;;;;;3.35;2.38;;;;;;;21.26;72.90;101974.59;4973425;28;20185;-48
2022/06/28 10:59:47;;;;;;;6.13;2.15;;;;;;;21.46;69.05;101967.88;4973291;28;20182;-47
2022/06/28 11:02:13;;;;;;;5.45;2.22;;;;;;;21.62;71.80;101967.72;4973667;28;20190;-46
2022/06/28 11:04:39;;;;;;;4.15;2.10;;;;;;;21.53;71.56;101981.00;4972748;28;20205;-48
2022/06/28 11:07:20;;;;;;;5.78;2.47;;;;;;;21.20;72.41;101984.03;4973191;28;20584;-48
2022/06/28 11:09:48;;;;;;;3.05;1.80;;;;;;;21.26;71.95;101989.09;4973187;28;20236;-49
2022/06/28 11:12:22;;;;;;;6.38;2.63;;;;;;;21.18;71.89;101983.28;4973359;28;20181;-47
2022/06/28 11:15:08;;;;;;;5.55;2.50;;;;;;;20.63;74.58;101989.50;4972715;28;20250;-47
2022/06/28 11:17:40;;;;;;;3.63;2.33;;;;;;;21.02;71.66;101988.84;4972807;28;20217;-48
2022/06/28 11:20:20;;;;;;;4.22;2.00;;;;;;;22.07;66.09;101963.72;4955982;28;20181;-47
2022/06/28 11:22:48;;;;;;;3.33;2.20;;;;;;;22.17;67.37;101959.41;4972707;28;20177;-47
2022/06/28 11:25:19;;;;;;;6.03;1.75;;;;;;;21.27;64.82;101974.47;4972217;28;20205;-49
2022/06/28 11:27:56;;;;;;;6.20;2.15;;;;;;;21.46;64.28;101976.94;4955617;28;20209;-45
2022/06/28 11:30:27;;;;;;;4.13;1.58;;;;;;;22.11;62.76;101958.94;4973179;28;20691;-47
2022/06/28 11:32:55;;;;;;;2.10;1.10;;;;;;;21.26;63.54;101970.03;4972503;28;20170;-45
2022/06/28 11:35:23;;;;;;;3.38;1.60;;;;;;;21.35;65.65;101972.16;4972782;28;20440;-47
2022/06/28 11:37:54;;;;;;;2.92;1.67;;;;;;;21.73;66.15;101966.00;4972728;28;20200;-47
2022/06/28 11:40:38;;;;;;;4.97;1.48;;;;;;;21.44;64.73;101964.38;4972722;28;20308;-47
2022/06/28 11:43:07;;;;;;;2.45;1.00;;;;;;;22.15;63.04;101964.09;4972239;28;20297;-47
2022/06/28 11:45:36;;;;;;;5.22;1.40;;;;;;;22.73;62.33;101961.84;4972116;28;20209;-47
2022/06/28 11:48:08;;;;;;;1.63;0.95;;;;;;;22.41;58.85;101953.22;4972777;28;20201;-47
2022/06/28 11:50:39;;;;;;;5.60;1.25;;;;;;;22.97;58.71;101956.47;4972092;28;20181;-46
2022/06/28 11:53:05;;;;;;;2.90;1.30;;;;;;;21.74;60.08;101956.88;4972212;28;20641;-48
2022/06/28 11:55:48;;;;;;;2.33;0.98;;;;;;;21.29;63.67;101969.81;4972515;28;20177;-46
2022/06/28 11:58:20;;;;;;;3.30;1.00;;;;;;;22.41;60.77;101961.41;4972213;28;20372;-46
2022/06/28 12:01:08;;;;;;;4.18;1.52;;;;;;;22.51;60.30;101950.72;4972192;28;20181;-45
2022/06/28 12:03:57;;;;;;;3.03;1.13;;;;;;;22.40;59.78;101955.06;4971554;28;20201;-47
2022/06/28 12:06:22;;;;;;;3.17;1.05;;;;;;;22.51;56.41;101946.13;4959349;28;20216;-47
2022/06/28 12:09:04;;;;;;;2.95;1.10;;;;;;;21.98;59.52;101956.19;4988711;28;20192;-45
2022/06/28 12:11:36;;;;;;;3.13;1.00;;;;;;;21.89;61.60;101973.19;4991443;28;20259;-48
2022/06/28 12:14:07;;;;;;;2.50;1.00;;;;;;;21.37;63.44;101970.19;4990926;28;20297;-48
2022/06/28 12:16:37;;;;;;;2.35;1.08;;;;;;;22.04;60.23;101957.59;4973339;28;20213;-46
2022/06/28 12:19:06;;;;;;;2.95;1.00;;;;;;;22.66;57.88;101954.22;4991047;28;20181;-45
2022/06/28 12:21:31;;;;;;;3.50;1.13;;;;;;;22.42;57.18;101955.84;4990304;28;20624;-47
2022/06/28 12:23:58;;;;;;;3.60;0.90;;;;;;;22.76;56.61;101958.03;4990848;28;20276;-46
2022/06/28 12:26:44;;;;;;;1.23;0.80;;;;;;;22.71;55.30;101952.91;4990922;28;20208;-48
2022/06/28 12:29:14;;;;;;;1.35;0.80;;;;;;;23.09;54.87;101942.91;4990881;28;20235;-48
2022/06/28 12:31:43;;;;;;;2.95;1.00;;;;;;;22.31;56.86;101955.72;4990562;28;20177;-44
2022/06/28 12:34:13;;;;;;;3.58;1.13;;;;;;;21.90;57.02;101950.38;4991016;28;20244;-46
2022/06/28 12:36:38;;;;;;;2.35;1.10;;;;;;;22.17;56.60;101959.41;4991182;28;20280;-47
2022/06/28 12:39:04;;;;;;;2.47;0.95;;;;;;;23.01;56.23;101958.03;4990875;28;20271;-47
2022/06/28 12:41:30;;;;;;;3.05;1.00;;;;;;;22.96;55.91;101951.16;4991682;28;20593;-48
2022/06/28 12:43:55;;;;;;;3.05;0.90;;;;;;;22.89;55.02;101953.41;4989119;28;20173;-46
2022/06/28 12:46:21;;;;;;;2.28;0.90;;;;;;;22.91;54.96;101950.59;4973684;28;20216;-47
2022/06/28 12:48:47;;;;;;;2.28;0.90;;;;;;;22.99;55.14;101953.63;4991004;28;20181;-44
2022/06/28 12:51:12;;;;;;;1.90;0.80;;;;;;;22.60;52.06;101955.53;4982313;28;20176;-46
2022/06/28 12:53:38;;;;;;;1.90;0.80;;;;;;;22.56;52.16;101954.84;4971471;28;20537;-47
2022/06/28 12:56:04;;;;;;;3.25;0.98;;;;;;;22.50;56.09;101960.78;4971808;28;20224;-47
2022/06/28 12:58:29;;;;;;;2.75;1.10;;;;;;;22.19;57.11;101956.53;4972311;28;20284;-48
2022/06/28 13:00:55;;;;;;;2.50;0.80;;;;;;;21.98;55.75;101962.50;4971444;28;20177;-47
2022/06/28 13:03:21;;;;;;;3.55;1.00;;;;;;;22.03;54.57;101964.91;4954249;28;20181;-49
2022/06/28 13:05:47;;;;;;;2.88;0.77;;;;;;;22.44;52.81;101946.69;4971488;28;20182;-47